createdAt,value
2022-10-18T00:04:17.928Z,9.81
2022-10-18T00:09:20.035Z,9.84
2022-10-18T00:14:22.056Z,9.89
2022-10-18T00:19:26.014Z,9.91
2022-10-18T00:24:30.513Z,9.95
2022-10-18T00:29:32.435Z,9.99
2022-10-18T00:34:34.318Z,10.02
2022-10-18T00:39:36.345Z,10.06
2022-10-18T00:44:38.688Z,10.05
2022-10-18T00:49:46.239Z,10.02
2022-10-18T00:54:49.818Z,9.94
2022-10-18T00:59:51.969Z,9.93
2022-10-18T01:04:53.966Z,9.91
2022-10-18T01:10:05.088Z,9.83
2022-10-18T01:15:12.642Z,9.74
2022-10-18T01:20:33.359Z,9.64
2022-10-18T01:25:42.167Z,9.59
2022-10-18T01:31:09.704Z,9.55
2022-10-18T01:36:18.954Z,9.54
2022-10-18T01:41:22.926Z,9.58
2022-10-18T01:46:25.679Z,9.62
2022-10-18T01:51:28.549Z,9.63
2022-10-18T01:56:45.746Z,9.65
2022-10-18T02:02:07.919Z,9.67
2022-10-18T02:07:16.650Z,9.70
2022-10-18T02:12:19.442Z,9.73
2022-10-18T02:17:21.829Z,9.76
2022-10-18T02:22:28.188Z,9.81
2022-10-18T02:27:30.613Z,9.83
2022-10-18T02:32:36.160Z,9.82
2022-10-18T02:37:39.301Z,9.83
2022-10-18T02:42:48.555Z,9.82
2022-10-18T02:47:50.823Z,9.84
2022-10-18T02:52:52.797Z,9.81
2022-10-18T02:57:54.635Z,9.78
2022-10-18T03:02:56.528Z,9.78
2022-10-18T03:07:58.493Z,9.77
2022-10-18T03:13:00.490Z,9.72
2022-10-18T03:18:02.444Z,9.72
2022-10-18T03:23:04.434Z,9.70
2022-10-18T03:28:06.478Z,9.65
2022-10-18T03:33:08.467Z,9.60
2022-10-18T03:38:10.447Z,9.52
2022-10-18T03:43:12.313Z,9.37
2022-10-18T03:48:14.242Z,9.38
2022-10-18T03:53:16.176Z,9.37
2022-10-18T03:58:18.372Z,9.37
2022-10-18T04:03:20.795Z,9.37
2022-10-18T04:08:22.725Z,9.35
2022-10-18T04:13:25.697Z,9.38
2022-10-18T04:18:27.679Z,9.47
2022-10-18T04:23:31.803Z,9.56
2022-10-18T04:28:40.155Z,9.65
2022-10-18T04:33:42.297Z,9.73
2022-10-18T04:38:44.231Z,9.77
2022-10-18T04:48:52.971Z,9.84
2022-10-18T04:53:55.225Z,9.97
2022-10-18T04:58:58.312Z,10.09
2022-10-18T05:04:00.199Z,10.22
2022-10-18T05:09:02.219Z,10.36
2022-10-18T05:14:04.239Z,10.47
2022-10-18T05:19:06.268Z,10.54
2022-10-18T05:24:10.212Z,10.57
2022-10-18T05:29:12.151Z,10.58
2022-10-18T05:34:14.220Z,10.61
2022-10-18T05:39:16.250Z,10.62
2022-10-18T05:44:18.289Z,10.59
2022-10-18T05:49:20.255Z,10.55
2022-10-18T05:54:22.187Z,10.56
2022-10-18T05:59:24.249Z,10.52
2022-10-18T06:04:26.225Z,10.49
2022-10-18T06:09:28.871Z,10.54
2022-10-18T06:14:31.312Z,10.60
2022-10-18T06:19:33.340Z,10.61
2022-10-18T06:24:35.324Z,10.57
2022-10-18T06:29:37.912Z,10.53
2022-10-18T06:34:39.818Z,10.50
2022-10-18T06:39:41.790Z,10.44
2022-10-18T06:44:43.742Z,10.32
2022-10-18T06:49:45.695Z,10.12
2022-10-18T06:54:47.646Z,9.91
2022-10-18T06:59:50.138Z,9.80
2022-10-18T07:04:52.103Z,9.67
2022-10-18T07:09:54.091Z,9.56
2022-10-18T07:14:56.098Z,9.43
2022-10-18T07:19:58.054Z,9.42
2022-10-18T07:24:59.978Z,9.47
2022-10-18T07:30:01.942Z,9.55
2022-10-18T07:35:05.696Z,9.59
2022-10-18T07:40:08.046Z,9.57
2022-10-18T07:45:10.577Z,9.59
2022-10-18T07:50:12.629Z,9.55
2022-10-18T07:55:15.192Z,9.65
2022-10-18T08:00:17.115Z,9.57
2022-10-18T08:05:19.081Z,9.55
2022-10-18T08:10:21.613Z,9.52
2022-10-18T08:15:25.706Z,9.47
2022-10-18T08:20:30.861Z,9.45
2022-10-18T08:25:33.447Z,9.40
2022-10-18T08:30:35.973Z,9.31
2022-10-18T08:35:38.025Z,9.27
2022-10-18T08:40:44.411Z,9.16
2022-10-18T08:45:46.426Z,9.27
2022-10-18T08:50:48.794Z,9.21
2022-10-18T08:55:52.695Z,9.29
2022-10-18T09:01:17.968Z,9.40
2022-10-18T09:06:24.974Z,9.37
2022-10-18T09:11:38.982Z,9.51
2022-10-18T09:16:43.981Z,9.54
2022-10-18T09:21:57.713Z,9.63
2022-10-18T09:27:05.350Z,9.77
2022-10-18T09:32:21.273Z,9.89
2022-10-18T09:37:24.331Z,10.01
2022-10-18T09:42:31.846Z,10.14
2022-10-18T09:47:45.312Z,10.24
2022-10-18T09:52:51.140Z,10.34
2022-10-18T09:57:56.322Z,10.42
2022-10-18T10:03:00.523Z,10.42
2022-10-18T10:08:03.082Z,10.54
2022-10-18T10:13:05.130Z,10.57
2022-10-18T10:18:17.301Z,10.62
2022-10-18T10:23:44.195Z,10.68
2022-10-18T10:28:49.022Z,10.71
2022-10-18T10:34:02.111Z,10.73
2022-10-18T10:39:05.613Z,10.77
2022-10-18T10:44:20.940Z,10.77
2022-10-18T10:49:40.979Z,10.82
2022-10-18T10:54:46.488Z,10.86
2022-10-18T10:59:54.024Z,10.94
2022-10-18T11:04:56.345Z,11.01
2022-10-18T11:10:10.229Z,11.07
2022-10-18T11:15:12.169Z,11.16
2022-10-18T11:20:19.321Z,11.25
2022-10-18T11:25:23.248Z,11.37
2022-10-18T11:30:41.915Z,11.49
2022-10-18T11:35:50.037Z,11.63
2022-10-18T11:40:58.885Z,11.76
2022-10-18T11:46:28.087Z,11.94
2022-10-18T11:52:07.203Z,12.17
2022-10-18T11:57:28.366Z,12.39
2022-10-18T12:02:42.613Z,12.52
2022-10-18T12:07:50.645Z,12.64
2022-10-18T12:12:56.607Z,12.74
2022-10-18T12:18:02.156Z,12.81
2022-10-18T12:23:24.261Z,12.90
2022-10-18T12:28:38.565Z,13.00
2022-10-18T12:33:46.433Z,13.13
2022-10-18T12:38:51.825Z,13.22
2022-10-18T12:43:55.619Z,13.32
2022-10-18T12:49:03.301Z,13.40
2022-10-18T12:54:08.219Z,13.47
2022-10-18T12:59:16.144Z,13.56
2022-10-18T13:04:27.285Z,13.66
2022-10-18T13:09:36.469Z,13.81
2022-10-18T13:14:53.610Z,13.91
2022-10-18T13:20:25.625Z,14.02
2022-10-18T13:25:32.242Z,14.11
2022-10-18T13:30:53.810Z,14.09
2022-10-18T13:35:57.441Z,14.12
2022-10-18T13:41:02.445Z,14.12
2022-10-18T13:46:04.524Z,14.14
2022-10-18T13:51:12.395Z,14.11
2022-10-18T13:56:30.245Z,14.14
2022-10-18T14:01:52.040Z,14.19
2022-10-18T14:07:02.058Z,14.20
2022-10-18T14:12:16.615Z,14.20
2022-10-18T14:17:18.430Z,14.21
2022-10-18T14:22:22.815Z,14.23
2022-10-18T14:27:29.707Z,14.20
2022-10-18T14:32:32.247Z,14.21
2022-10-18T14:37:35.526Z,14.13
2022-10-18T14:42:37.572Z,14.08
2022-10-18T14:47:39.748Z,14.05
2022-10-18T14:52:41.674Z,14.08
2022-10-18T14:57:43.654Z,14.04
2022-10-18T15:02:45.967Z,14.01
2022-10-18T15:07:48.583Z,14.10
2022-10-18T15:13:08.662Z,14.14
2022-10-18T15:18:20.365Z,14.08
2022-10-18T15:23:23.967Z,14.00
2022-10-18T15:28:36.094Z,13.94
2022-10-18T15:33:38.068Z,13.86
2022-10-18T15:38:40.007Z,13.74
2022-10-18T15:43:41.891Z,13.71
2022-10-18T15:48:43.724Z,13.62
2022-10-18T15:53:53.163Z,13.60
2022-10-18T15:58:57.064Z,13.54
2022-10-18T16:04:01.149Z,13.33
2022-10-18T16:09:03.145Z,13.21
2022-10-18T16:14:05.073Z,13.06
2022-10-18T16:19:07.519Z,12.82
2022-10-18T16:24:09.382Z,12.65
2022-10-18T16:29:13.513Z,12.48
2022-10-18T16:34:15.595Z,12.32
2022-10-18T16:39:18.155Z,12.36
2022-10-18T16:44:20.091Z,12.40
2022-10-18T16:49:24.129Z,12.44
2022-10-18T16:54:26.551Z,12.51
2022-10-18T16:59:29.591Z,12.61
2022-10-18T17:04:31.559Z,12.56
2022-10-18T17:09:35.081Z,12.53
2022-10-18T17:14:37.098Z,12.48
2022-10-18T17:19:38.976Z,12.35
2022-10-18T17:24:40.913Z,12.24
2022-10-18T17:29:43.934Z,12.08
2022-10-18T17:34:45.878Z,11.97
2022-10-18T17:39:47.879Z,11.92
2022-10-18T17:44:51.929Z,11.93
2022-10-18T17:49:55.134Z,11.88
2022-10-18T17:54:57.118Z,11.89
2022-10-18T17:59:59.890Z,11.89
2022-10-18T18:05:02.564Z,11.90
2022-10-18T18:10:05.104Z,11.89
2022-10-18T18:15:07.199Z,11.89
2022-10-18T18:20:09.363Z,11.79
2022-10-18T18:25:11.398Z,11.68
2022-10-18T18:30:17.802Z,11.52
2022-10-18T18:35:20.039Z,11.30
2022-10-18T18:40:23.936Z,11.03
2022-10-18T18:45:25.887Z,10.89
2022-10-18T18:50:27.848Z,10.74
2022-10-18T18:55:31.445Z,10.62
2022-10-18T19:00:33.444Z,10.53
2022-10-18T19:05:35.782Z,10.43
2022-10-18T19:10:37.717Z,10.35
2022-10-18T19:15:39.685Z,10.31
2022-10-18T19:20:41.651Z,10.34
2022-10-18T19:25:46.363Z,10.41
2022-10-18T19:30:50.225Z,10.51
2022-10-18T19:35:52.778Z,10.59
2022-10-18T19:40:54.755Z,10.59
2022-10-18T19:45:56.720Z,10.54
2022-10-18T19:51:03.504Z,10.45
2022-10-18T19:56:07.709Z,10.33
2022-10-18T20:01:10.184Z,10.24
2022-10-18T20:06:13.815Z,10.19
2022-10-18T20:11:20.239Z,10.20
2022-10-18T20:16:27.858Z,10.29
2022-10-18T20:21:31.560Z,10.40
2022-10-18T20:26:34.599Z,10.33
2022-10-18T20:31:38.500Z,10.37
2022-10-18T20:36:40.630Z,10.39
2022-10-18T20:41:42.855Z,10.52
2022-10-18T20:46:45.291Z,10.54
2022-10-18T20:51:47.275Z,10.50
2022-10-18T20:56:49.231Z,10.52
2022-10-18T21:01:51.215Z,10.61
2022-10-18T21:06:53.245Z,10.77
2022-10-18T21:11:56.241Z,10.91
2022-10-18T21:16:58.290Z,11.01
2022-10-18T21:22:00.224Z,11.06
2022-10-18T21:27:02.198Z,11.04
2022-10-18T21:32:04.220Z,11.03
2022-10-18T21:37:06.187Z,11.04
2022-10-18T21:42:08.774Z,11.08
2022-10-18T21:47:10.711Z,11.12
2022-10-18T21:52:12.670Z,11.19
2022-10-18T21:57:14.603Z,11.25
2022-10-18T22:02:16.470Z,11.29
2022-10-18T22:07:18.481Z,11.33
2022-10-18T22:12:20.414Z,11.39
2022-10-18T22:17:23.690Z,11.44
2022-10-18T22:22:25.721Z,11.49
2022-10-18T22:27:30.054Z,11.53
2022-10-18T22:32:32.056Z,11.56
2022-10-18T22:37:34.541Z,11.58
2022-10-18T22:42:36.744Z,11.58
2022-10-18T22:47:38.750Z,11.60
2022-10-18T22:52:40.806Z,11.59
2022-10-18T22:57:42.777Z,11.58
2022-10-18T23:02:44.753Z,11.59
2022-10-18T23:07:49.787Z,11.57
2022-10-18T23:12:51.734Z,11.58
2022-10-18T23:17:54.694Z,11.61
2022-10-18T23:22:56.640Z,11.64
2022-10-18T23:27:58.629Z,11.65
2022-10-18T23:33:00.665Z,11.65
2022-10-18T23:38:04.332Z,11.61
2022-10-18T23:43:06.301Z,11.58
2022-10-18T23:48:08.484Z,11.54
2022-10-18T23:53:10.924Z,11.48
2022-10-18T23:58:12.839Z,11.43
